CheckWX is a tool to help pilots better visualize weather data.  It is not intended as a substitute for an official pre-flight weather briefing.

01:37:45 UTC

KTHA METAR
Tullahoma Regional Arpt / Wm Northern Field Airport
Tullahoma, Tennessee, USA
Current

43 mins ago

KTHA 200055Z AUTO 00000KT 10SM CLR 25/20 A3005 RMK A01
Observed
Aug-20 @ 00:55 UTC
Visibility
10 SM
Flight Rules
VFR
Cloud Levels
  • Clear skies
Temperature
25°C / 77°F
Dewpoint
20°C / 68°F
Humidity
74%
Altimeter
30.05" Hg
Pressure
1017.62 hPa
Previous

1 hour ago

KTHA 200035Z AUTO 12003KT 10SM CLR 26/20 A3005 RMK A01
Observed
Aug-20 @ 00:35 UTC
Wind
  • 120° at 3 KTS
Visibility
10 SM
Flight Rules
VFR
Cloud Levels
  • Clear skies
Temperature
26°C / 79°F
Dewpoint
20°C / 68°F
Humidity
70%
Altimeter
30.05" Hg
Pressure
1017.62 hPa
Previous

2 hours ago

KTHA 192355Z AUTO 24008KT 10SM CLR 27/20 A3005 RMK A01
Observed
Aug-19 @ 23:55 UTC
Wind
  • 240° at 8 KTS
Visibility
10 SM
Flight Rules
VFR
Cloud Levels
  • Clear skies
Temperature
27°C / 81°F
Dewpoint
20°C / 68°F
Heat Index
29°C / 84°F
Humidity
66%
Altimeter
30.05" Hg
Pressure
1017.62 hPa